Impacts METAR Board
IDs:

KLAX - Los Angeles Intl, CA, US

Updated at: 0200 UTC 16 Oct 2018
Potential Impact None Slight Moderate High
Time 15/14Z 15/15Z 15/16Z 15/17Z 15/18Z 15/19Z 15/20Z 15/21Z 15/22Z 15/23Z 16/00Z 16/01Z 16/02Z
Temp60 61 69 75 78 80 82 82 83 83 83 81 77
Dewpt57 57 47 24 15 11 4 3 1 -2 -6 -6 -0
Altim30.05 30.07 30.08 30.07 30.06 30.05 30.04 30.01 30.00 30.00 29.99 29.99 29.99
VIS10 8 9 10 10 10 10 10 10 10 10 10 10
CIG-- -- -- -- -- -- -- -- -- -- -- -- --
CoverSCTSCTFEWFEWFEWCLRCLRCLRCLRCLRCLRCLRCLR
FltCatVFRVFRVFRVFRVFRVFRVFRVFRVFRVFRVFRVFRVFR
WX--------------------------
WDir0050090010103603020300
WSpd0 0 4 0 7 5 10 13 11 11 12 9 0
WGst-- -- -- -- -- -- 17 18 -- -- 19 23 --
Raw hourly METARs
KLAX 151353Z 00000KT 10SM FEW010 FEW085 SCT180 16/14 A3005 RMK AO2 SLP173 T01560139
KLAX 151453Z 00000KT 8SM FEW012 FEW090 SCT180 16/14 A3007 RMK AO2 SLP180 T01610139 53018
KLAX 151553Z 05004KT 9SM FEW014 FEW180 21/08 A3008 RMK AO2 SLP185 T02060083
KLAX 151653Z COR 00000KT 10SM FEW015 FEW180 24/M04 A3007 RMK AO2 SLP182 T02391044
KLAX 151753Z 09007KT 10SM FEW016 FEW180 26/M09 A3006 RMK AO2 SLP179 T02561094 10256 20156 50001
KLAX 151853Z VRB05KT 10SM CLR 27/M12 A3005 RMK AO2 SLP175 T02671117
KLAX 151953Z 01010G17KT 10SM CLR 28/M16 A3004 RMK AO2 SLP170 T02781156
KLAX 152053Z 01013G18KT 10SM CLR 28/M16 A3001 RMK AO2 SLP163 T02781161 58016
KLAX 152153Z 36011KT 10SM CLR 28/M17 A3000 RMK AO2 SLP159 T02831172
KLAX 152253Z 03011KT 10SM CLR 28/M19 A3000 RMK AO2 SLP157 T02831189
KLAX 152353Z 02012G19KT 10SM CLR 28/M21 A2999 RMK AO2 SLP154 T02831211 10289 20250 56009
KLAX 160053Z 03009G23KT 10SM CLR 27/M21 A2999 RMK AO2 SLP153 T02721211 $
KLAX 160153Z 00000KT 10SM CLR 25/M18 A2999 RMK AO2 SLP154 T02501178 $



Page loaded:  02:45 UTC  |   07:45 PM Pacific  |   08:45 PM Mountain  |   09:45 PM Central  |   10:45 PM Eastern

 

ADVISORIES

FORECASTS

FORECASTS

OBSERVATIONS

USER TOOLS

ABOUT US